Time;durP1;ratioP1;P1;durP2;ratioP2;P2;SDS_P1;SDS_P2;PMS_P1;PMS_P2;Temp;Humidity;BMP_temperature;BMP_pressure;BME280_temperature;BME280_humidity;BME280_pressure;Samples;Min_cycle;Max_cycle;Signal;HPM_P1;HPM_P2
2023/03/23 00:00:49;;;;;;;2.40;0.93;;;13.00;65.70;;;;;;5033639;28;20053;-71
2023/03/23 00:03:24;;;;;;;2.78;1.02;;;13.00;65.60;;;;;;5034725;28;20048;-70
2023/03/23 00:06:02;;;;;;;2.75;0.88;;;13.00;65.20;;;;;;5012863;28;20049;-66
2023/03/23 00:08:37;;;;;;;3.67;1.30;;;13.10;65.50;;;;;;5012234;28;20057;-66
2023/03/23 00:11:14;;;;;;;2.67;1.10;;;13.10;65.40;;;;;;5015573;28;20439;-62
2023/03/23 00:13:51;;;;;;;3.83;1.10;;;13.10;65.20;;;;;;5013475;28;20093;-62
2023/03/23 00:16:30;;;;;;;3.60;1.27;;;13.10;65.20;;;;;;5012050;28;20045;-70
2023/03/23 00:19:06;;;;;;;3.42;1.65;;;13.10;65.30;;;;;;5013471;28;20068;-70
2023/03/23 00:21:41;;;;;;;4.28;1.27;;;13.10;65.20;;;;;;5013301;28;20056;-69
2023/03/23 00:24:16;;;;;;;3.45;1.40;;;13.10;65.30;;;;;;5015552;28;20053;-70
2023/03/23 00:26:52;;;;;;;3.55;1.25;;;13.10;65.30;;;;;;5014083;28;20097;-70
2023/03/23 00:29:26;;;;;;;2.35;1.08;;;13.10;65.30;;;;;;5015023;28;20057;-70
2023/03/23 00:32:01;;;;;;;3.78;1.13;;;13.10;65.60;;;;;;5012053;28;20156;-65
2023/03/23 00:34:35;;;;;;;2.35;1.00;;;13.10;65.60;;;;;;5013889;28;20129;-64
2023/03/23 00:37:09;;;;;;;4.07;1.25;;;13.10;65.60;;;;;;5014864;28;20041;-65
2023/03/23 00:39:45;;;;;;;2.47;1.10;;;13.10;65.80;;;;;;4996928;28;20528;-66
2023/03/23 00:42:21;;;;;;;3.25;1.00;;;13.10;65.70;;;;;;5013410;28;20052;-70
2023/03/23 00:44:59;;;;;;;3.03;1.10;;;13.20;65.90;;;;;;5013028;28;20124;-69
2023/03/23 00:47:35;;;;;;;3.78;1.17;;;13.20;65.70;;;;;;5012863;28;20045;-72
2023/03/23 00:50:12;;;;;;;2.80;1.00;;;13.20;65.80;;;;;;5012842;28;20495;-72
2023/03/23 00:52:49;;;;;;;3.40;0.80;;;13.20;65.60;;;;;;5012176;28;20057;-66
2023/03/23 00:55:22;;;;;;;2.75;1.02;;;13.20;65.60;;;;;;5035367;28;20103;-67
2023/03/23 00:58:03;;;;;;;3.88;1.25;;;13.20;65.50;;;;;;5026090;28;20412;-64
2023/03/23 01:00:44;;;;;;;2.20;0.90;;;13.20;65.50;;;;;;5002725;28;20057;-63
2023/03/23 01:03:18;;;;;;;3.28;1.08;;;13.20;65.50;;;;;;5033539;28;20115;-64
2023/03/23 01:05:51;;;;;;;2.50;1.10;;;13.20;65.40;;;;;;5032038;28;20143;-64
2023/03/23 01:08:26;;;;;;;2.03;0.80;;;13.20;65.30;;;;;;5011866;28;20056;-64
2023/03/23 01:11:10;;;;;;;1.85;1.00;;;13.20;65.20;;;;;;5032177;28;20565;-71
2023/03/23 01:13:46;;;;;;;3.85;1.00;;;13.20;65.30;;;;;;5013537;28;20093;-69
2023/03/23 01:16:21;;;;;;;1.63;0.70;;;13.20;65.30;;;;;;5013756;28;20212;-62
2023/03/23 01:18:55;;;;;;;2.55;1.05;;;13.20;65.60;;;;;;4995428;28;20058;-62
2023/03/23 01:21:30;;;;;;;2.92;1.00;;;13.20;65.30;;;;;;5008353;28;20132;-67
2023/03/23 01:24:04;;;;;;;2.42;0.80;;;13.20;65.20;;;;;;5028619;28;20099;-66
2023/03/23 01:26:37;;;;;;;2.17;0.80;;;13.20;65.30;;;;;;5023041;28;20381;-64
2023/03/23 01:29:13;;;;;;;2.88;1.20;;;13.20;65.40;;;;;;5031419;28;20116;-63
2023/03/23 01:31:46;;;;;;;2.72;1.10;;;13.30;65.30;;;;;;5007298;28;20045;-62
2023/03/23 01:34:20;;;;;;;2.03;0.80;;;13.20;65.10;;;;;;5007892;28;20060;-64
2023/03/23 01:36:53;;;;;;;1.92;0.80;;;13.20;65.10;;;;;;5031795;28;20107;-70
2023/03/23 01:39:27;;;;;;;3.03;0.82;;;13.20;65.10;;;;;;5009428;28;20148;-71
2023/03/23 01:42:00;;;;;;;1.63;0.60;;;13.20;65.20;;;;;;5032318;28;20310;-64
2023/03/23 01:45:25;;;;;;;1.65;0.73;;;13.20;65.40;;;;;;5012617;28;20542;-65
2023/03/23 01:48:08;;;;;;;3.88;0.88;;;13.20;65.30;;;;;;5015888;28;20118;-62
2023/03/23 01:50:49;;;;;;;2.72;0.80;;;13.20;65.60;;;;;;5014127;28;20386;-71
2023/03/23 01:53:29;;;;;;;2.05;0.60;;;13.20;65.60;;;;;;5007619;28;20053;-72
2023/03/23 01:56:03;;;;;;;2.20;0.70;;;13.20;65.50;;;;;;5011737;28;20057;-65
2023/03/23 01:58:49;;;;;;;2.90;0.77;;;13.20;65.40;;;;;;4730810;28;8051913;-67
2023/03/23 02:01:25;;;;;;;3.55;0.90;;;13.20;65.10;;;;;;5026379;28;20049;-69
2023/03/23 02:04:01;;;;;;;3.05;0.65;;;13.30;65.00;;;;;;5011678;28;20045;-71
2023/03/23 02:06:37;;;;;;;2.00;0.80;;;13.20;65.20;;;;;;5021763;28;20132;-61
2023/03/23 02:09:16;;;;;;;2.17;0.90;;;13.20;65.20;;;;;;5026711;28;20053;-61
2023/03/23 02:11:51;;;;;;;2.45;0.60;;;13.20;65.20;;;;;;5021035;28;20069;-62
2023/03/23 02:14:26;;;;;;;1.95;0.70;;;13.20;65.10;;;;;;4996415;28;20049;-62
2023/03/23 02:17:06;;;;;;;2.08;0.80;;;13.30;65.10;;;;;;5005656;28;20041;-68
2023/03/23 02:19:56;;;;;;;3.03;0.82;;;13.30;65.00;;;;;;5026735;28;20575;-70
2023/03/23 02:23:05;;;;;;;2.08;0.90;;;13.30;65.00;;;;;;5017193;28;20045;-65
2023/03/23 02:25:56;;;;;;;4.82;1.33;;;13.30;65.30;;;;;;5030564;28;20439;-71
2023/03/23 02:28:51;;;;;;;2.10;1.00;;;13.30;64.90;;;;;;5012388;28;20060;-69
2023/03/23 02:31:43;;;;;;;3.03;1.00;;;13.30;65.00;;;;;;5036149;28;20459;-65
2023/03/23 02:34:21;;;;;;;2.38;1.23;;;13.30;65.00;;;;;;5003652;28;20061;-65
2023/03/23 02:36:59;;;;;;;2.92;1.40;;;13.30;65.00;;;;;;5015346;28;20076;-68
2023/03/23 02:39:37;;;;;;;2.22;0.77;;;13.30;65.00;;;;;;5011903;28;20405;-66
2023/03/23 02:42:13;;;;;;;2.25;0.80;;;13.30;65.10;;;;;;5011816;28;20057;-69
2023/03/23 02:44:49;;;;;;;1.90;0.90;;;13.30;65.10;;;;;;4990142;28;20058;-70
2023/03/23 02:47:26;;;;;;;2.17;0.80;;;13.30;65.00;;;;;;5007050;28;20049;-70
2023/03/23 02:50:02;;;;;;;2.28;0.80;;;13.30;64.80;;;;;;4993705;28;20073;-70
2023/03/23 02:52:39;;;;;;;2.45;0.90;;;13.30;64.80;;;;;;5030464;28;20489;-62
2023/03/23 02:55:14;;;;;;;1.15;0.60;;;13.30;65.10;;;;;;5018900;28;20048;-63
2023/03/23 02:57:55;;;;;;;1.77;0.90;;;13.30;65.00;;;;;;5018619;28;20441;-64
2023/03/23 03:00:30;;;;;;;2.05;0.70;;;13.30;65.00;;;;;;5014167;28;20049;-69
2023/03/23 03:03:06;;;;;;;1.52;0.75;;;13.30;65.00;;;;;;5018095;28;20041;-70
2023/03/23 03:05:43;;;;;;;2.47;0.90;;;13.40;65.10;;;;;;5005968;28;20099;-69
2023/03/23 03:08:24;;;;;;;2.45;0.90;;;13.30;65.00;;;;;;5007790;28;20111;-69
2023/03/23 03:11:03;;;;;;;2.95;1.00;;;13.30;65.20;;;;;;4996945;28;20054;-63
2023/03/23 03:13:48;;;;;;;1.65;0.80;;;13.40;65.40;;;;;;4995025;28;20551;-63
2023/03/23 03:16:28;;;;;;;2.92;0.90;;;13.30;65.40;;;;;;5025372;28;20045;-62
2023/03/23 03:19:07;;;;;;;2.13;0.77;;;13.30;65.50;;;;;;5030672;28;20081;-63
2023/03/23 03:21:46;;;;;;;1.98;0.90;;;13.30;65.90;;;;;;5013077;28;20160;-61
2023/03/23 03:24:28;;;;;;;2.55;0.95;;;13.30;66.00;;;;;;5011782;28;20069;-61
2023/03/23 03:27:04;;;;;;;2.50;0.90;;;13.20;66.50;;;;;;5030781;28;20063;-61
2023/03/23 03:29:47;;;;;;;2.40;0.52;;;13.20;67.10;;;;;;5011964;28;20075;-61
2023/03/23 03:32:23;;;;;;;2.67;1.00;;;13.20;67.70;;;;;;5004375;28;20049;-61
2023/03/23 03:34:59;;;;;;;3.42;1.05;;;13.10;68.60;;;;;;5015968;28;20053;-60
2023/03/23 03:37:37;;;;;;;1.95;0.90;;;13.10;69.80;;;;;;5026311;28;20045;-63
2023/03/23 03:40:13;;;;;;;1.90;0.98;;;13.00;70.80;;;;;;5012705;28;20105;-62
2023/03/23 03:42:46;;;;;;;2.15;1.05;;;12.90;71.20;;;;;;5024689;28;20060;-62
2023/03/23 03:45:21;;;;;;;2.38;1.08;;;12.90;71.70;;;;;;5032209;28;20533;-63
2023/03/23 03:47:55;;;;;;;2.85;1.00;;;12.80;72.20;;;;;;5030014;28;20057;-63
2023/03/23 03:50:30;;;;;;;3.00;0.85;;;12.80;72.70;;;;;;5012551;28;20053;-63
2023/03/23 03:53:06;;;;;;;2.15;0.98;;;12.80;73.20;;;;;;5033812;28;20049;-62
2023/03/23 03:55:45;;;;;;;3.92;0.98;;;12.70;74.20;;;;;;5013531;28;20137;-69
2023/03/23 03:58:19;;;;;;;1.95;0.90;;;12.70;74.50;;;;;;5033322;28;20558;-69
2023/03/23 04:01:17;;;;;;;2.63;0.82;;;12.60;75.00;;;;;;5026519;28;20041;-64
2023/03/23 04:03:51;;;;;;;2.10;0.80;;;12.60;75.60;;;;;;5014818;28;20536;-65
2023/03/23 04:06:32;;;;;;;3.30;1.00;;;12.60;75.90;;;;;;5008176;28;20112;-63
2023/03/23 04:09:08;;;;;;;2.45;1.08;;;12.50;76.90;;;;;;5009991;28;20049;-62
2023/03/23 04:11:42;;;;;;;2.45;0.90;;;12.50;77.00;;;;;;5033868;28;20057;-69
2023/03/23 04:14:36;;;;;;;2.33;1.13;;;12.50;77.20;;;;;;5029998;28;20095;-71
2023/03/23 04:17:10;;;;;;;4.05;1.00;;;12.40;77.80;;;;;;5008536;28;20054;-63
2023/03/23 04:19:44;;;;;;;5.00;1.10;;;12.40;78.40;;;;;;4994151;28;20041;-62
2023/03/23 04:22:18;;;;;;;5.18;0.98;;;12.30;78.90;;;;;;5008660;28;20045;-71
2023/03/23 04:24:53;;;;;;;3.70;1.38;;;12.30;79.40;;;;;;4990693;28;20069;-72
2023/03/23 04:27:27;;;;;;;1.73;0.88;;;12.30;79.90;;;;;;5014379;28;20497;-64
2023/03/23 04:30:04;;;;;;;4.47;1.10;;;12.20;80.30;;;;;;5010260;28;20141;-64
2023/03/23 04:32:51;;;;;;;4.82;1.25;;;12.30;80.40;;;;;;5013365;28;20053;-65
2023/03/23 04:35:26;;;;;;;3.53;0.95;;;12.30;80.70;;;;;;5014701;28;20161;-68
2023/03/23 04:38:12;;;;;;;4.05;1.20;;;12.20;81.00;;;;;;5024181;28;20045;-70
2023/03/23 04:40:51;;;;;;;4.70;1.13;;;12.20;81.20;;;;;;5030213;28;20049;-65
2023/03/23 04:43:41;;;;;;;4.72;1.30;;;12.20;81.60;;;;;;5011380;28;20041;-65
2023/03/23 04:46:28;;;;;;;4.03;1.70;;;12.20;81.80;;;;;;5015531;28;20049;-71
2023/03/23 04:49:09;;;;;;;3.42;1.30;;;12.20;81.80;;;;;;5004498;28;20060;-69
2023/03/23 04:51:42;;;;;;;2.22;1.08;;;12.20;82.50;;;;;;5010164;28;20046;-62
2023/03/23 04:54:41;;;;;;;3.22;1.30;;;12.10;82.60;;;;;;5009872;28;20613;-61
2023/03/23 04:57:16;;;;;;;5.65;1.30;;;12.10;82.60;;;;;;5007618;28;20132;-71
2023/03/23 05:00:18;;;;;;;4.40;1.30;;;12.10;83.00;;;;;;4989003;28;20073;-71
2023/03/23 05:02:55;;;;;;;3.80;1.13;;;12.10;82.90;;;;;;4973953;28;20405;-70
2023/03/23 05:05:31;;;;;;;3.75;1.20;;;12.10;83.10;;;;;;5002080;28;20060;-69
2023/03/23 05:08:07;;;;;;;3.22;1.27;;;12.00;83.40;;;;;;4988930;28;20097;-69
2023/03/23 05:10:42;;;;;;;6.05;1.40;;;12.00;83.50;;;;;;4967118;28;20046;-62
2023/03/23 05:13:18;;;;;;;4.00;1.10;;;12.00;83.50;;;;;;5007190;28;20072;-62
2023/03/23 05:15:55;;;;;;;3.20;1.17;;;12.00;83.40;;;;;;4986348;28;20073;-62
2023/03/23 05:18:28;;;;;;;4.85;1.50;;;12.00;83.70;;;;;;4985079;28;20053;-62
2023/03/23 05:21:05;;;;;;;3.90;1.73;;;12.00;83.90;;;;;;4998628;28;20061;-62
2023/03/23 05:23:44;;;;;;;5.15;1.80;;;12.00;83.90;;;;;;4967013;28;20066;-62
2023/03/23 05:26:21;;;;;;;4.05;1.58;;;11.90;84.20;;;;;;4966806;28;20050;-63
2023/03/23 05:28:58;;;;;;;3.38;1.52;;;11.90;84.30;;;;;;4983520;28;20131;-62
2023/03/23 05:31:42;;;;;;;4.90;1.30;;;11.90;84.40;;;;;;4974800;28;20054;-70
2023/03/23 05:34:16;;;;;;;4.78;1.23;;;12.00;84.20;;;;;;4993588;28;20050;-71
2023/03/23 05:36:57;;;;;;;3.53;1.48;;;11.90;84.50;;;;;;4991112;28;20144;-63
2023/03/23 05:39:44;;;;;;;4.53;1.40;;;11.90;84.20;;;;;;5013664;28;20050;-62
2023/03/23 05:42:17;;;;;;;4.78;1.85;;;11.90;84.70;;;;;;4993938;28;20220;-62
2023/03/23 05:45:12;;;;;;;5.60;1.73;;;11.90;84.50;;;;;;4992195;28;20165;-63
2023/03/23 05:47:48;;;;;;;4.90;1.60;;;11.90;84.50;;;;;;4994190;28;20404;-62
2023/03/23 05:50:22;;;;;;;4.63;1.33;;;11.90;84.40;;;;;;4986785;28;20401;-63
2023/03/23 05:52:56;;;;;;;3.95;1.83;;;11.90;84.40;;;;;;4991296;28;20060;-62
2023/03/23 05:55:33;;;;;;;4.78;1.75;;;11.90;84.50;;;;;;4991601;28;20037;-62
2023/03/23 05:58:20;;;;;;;3.03;1.30;;;11.90;84.70;;;;;;5001188;28;20053;-61
2023/03/23 06:00:55;;;;;;;2.65;1.30;;;11.90;84.90;;;;;;5023044;28;20065;-71
2023/03/23 06:03:31;;;;;;;4.22;1.20;;;11.90;84.80;;;;;;5014812;28;20157;-70
2023/03/23 06:06:16;;;;;;;4.65;1.30;;;11.90;84.90;;;;;;5023435;28;20393;-70
2023/03/23 06:08:54;;;;;;;4.03;1.40;;;11.90;84.90;;;;;;5023977;28;20054;-70
2023/03/23 06:11:40;;;;;;;2.88;1.08;;;11.90;85.00;;;;;;5013648;28;20049;-61
2023/03/23 06:14:43;;;;;;;3.65;1.27;;;11.90;84.90;;;;;;4966522;28;20077;-61
2023/03/23 06:17:24;;;;;;;4.40;1.17;;;11.90;85.00;;;;;;5025952;28;20049;-62
2023/03/23 06:19:58;;;;;;;4.53;1.40;;;11.90;85.20;;;;;;5006713;28;20052;-62
2023/03/23 06:22:31;;;;;;;4.68;1.40;;;11.90;85.30;;;;;;4999642;28;20065;-67
2023/03/23 06:25:12;;;;;;;3.33;1.42;;;11.90;85.40;;;;;;5012159;28;20382;-69
2023/03/23 06:27:46;;;;;;;2.40;0.98;;;11.90;85.40;;;;;;5010605;28;20067;-68
2023/03/23 06:30:20;;;;;;;2.50;1.10;;;11.90;85.60;;;;;;4992247;28;20053;-68
2023/03/23 06:32:56;;;;;;;5.28;1.30;;;11.90;85.60;;;;;;4998776;28;20054;-68
2023/03/23 06:35:49;;;;;;;3.33;1.27;;;11.90;85.70;;;;;;5015518;28;20054;-67
2023/03/23 06:38:47;;;;;;;4.05;1.30;;;11.90;85.80;;;;;;5003320;28;20041;-68
2023/03/23 06:41:28;;;;;;;3.53;1.30;;;11.90;85.80;;;;;;4989630;28;20053;-62
2023/03/23 06:44:02;;;;;;;5.03;1.30;;;11.90;85.50;;;;;;5015577;28;20385;-63
2023/03/23 06:46:35;;;;;;;4.53;1.35;;;11.90;85.60;;;;;;5027263;28;20488;-64
2023/03/23 06:49:27;;;;;;;3.95;1.23;;;11.90;85.60;;;;;;5011618;28;20056;-65
2023/03/23 06:52:22;;;;;;;3.28;1.33;;;11.90;85.60;;;;;;5032894;28;20049;-65
2023/03/23 06:54:55;;;;;;;4.30;1.55;;;11.90;85.70;;;;;;5014413;28;20058;-64
2023/03/23 06:57:29;;;;;;;3.50;1.17;;;11.90;85.80;;;;;;4997463;28;20890;-61
2023/03/23 07:00:12;;;;;;;4.50;1.27;;;11.90;86.00;;;;;;5012909;28;20427;-62
2023/03/23 07:02:46;;;;;;;5.15;1.50;;;11.90;86.00;;;;;;5015784;28;20044;-67
2023/03/23 07:05:29;;;;;;;2.63;1.20;;;12.00;86.20;;;;;;5013889;28;20057;-68
2023/03/23 07:08:03;;;;;;;5.47;1.63;;;12.00;86.40;;;;;;5012997;28;20046;-69
2023/03/23 07:10:42;;;;;;;6.68;1.77;;;11.90;86.40;;;;;;5022755;28;20053;-63
2023/03/23 07:13:15;;;;;;;4.18;1.95;;;12.00;86.40;;;;;;5007993;28;20056;-61
2023/03/23 07:15:53;;;;;;;3.03;1.52;;;12.10;86.10;;;;;;5013981;28;20073;-70
2023/03/23 07:18:27;;;;;;;5.35;1.63;;;12.10;86.10;;;;;;5032314;28;20054;-70
2023/03/23 07:20:57;;;;;;;3.80;1.63;;;12.00;86.40;;;;;;5015860;28;20528;-70
2023/03/23 07:23:32;;;;;;;4.45;1.48;;;12.10;86.60;;;;;;5014666;28;20055;-69
2023/03/23 07:26:09;;;;;;;5.25;1.52;;;12.10;86.30;;;;;;5015728;28;20519;-62
2023/03/23 07:28:49;;;;;;;4.25;1.40;;;12.10;86.20;;;;;;5028498;28;20662;-61
2023/03/23 07:31:43;;;;;;;5.05;1.65;;;12.10;86.20;;;;;;5033793;28;20052;-61
2023/03/23 07:34:17;;;;;;;4.40;1.65;;;12.20;86.00;;;;;;5033473;28;20056;-61
2023/03/23 07:37:05;;;;;;;4.40;1.58;;;12.20;85.80;;;;;;5017370;28;20211;-61
2023/03/23 07:39:41;;;;;;;3.80;1.67;;;12.20;85.40;;;;;;5014864;28;20137;-62
2023/03/23 07:42:16;;;;;;;3.28;1.60;;;12.20;86.30;;;;;;5011304;28;20052;-62
2023/03/23 07:44:58;;;;;;;5.20;1.90;;;12.20;86.40;;;;;;4989462;28;20385;-62
2023/03/23 07:47:32;;;;;;;4.28;1.80;;;12.20;86.50;;;;;;5016754;28;20484;-62
2023/03/23 07:50:08;;;;;;;4.75;1.67;;;12.20;86.40;;;;;;5014256;28;20512;-62
2023/03/23 07:52:45;;;;;;;3.60;1.63;;;12.20;86.00;;;;;;5033190;28;20064;-67
2023/03/23 07:55:20;;;;;;;4.20;1.88;;;12.20;86.40;;;;;;4988014;28;20045;-68
2023/03/23 07:58:08;;;;;;;4.85;1.88;;;12.20;86.00;;;;;;5021699;28;20041;-67
2023/03/23 08:00:48;;;;;;;4.25;1.40;;;12.20;85.50;;;;;;5007275;28;20623;-70
2023/03/23 08:03:23;;;;;;;3.13;1.30;;;12.30;85.70;;;;;;5022775;28;20292;-71
2023/03/23 08:06:18;;;;;;;2.70;1.35;;;12.30;86.10;;;;;;5014724;28;20052;-62
2023/03/23 08:09:19;;;;;;;2.38;1.10;;;12.20;86.20;;;;;;5028044;28;20063;-62
2023/03/23 08:12:06;;;;;;;4.63;1.50;;;12.20;86.10;;;;;;5015942;28;20136;-67
2023/03/23 08:15:03;;;;;;;4.68;1.90;;;12.20;85.80;;;;;;5016155;28;20111;-68
2023/03/23 08:18:00;;;;;;;4.60;1.95;;;12.20;86.40;;;;;;5009241;28;20052;-71
2023/03/23 08:20:53;;;;;;;4.05;1.92;;;12.20;85.80;;;;;;5013649;28;20056;-71
2023/03/23 08:23:50;;;;;;;5.88;2.53;;;12.20;86.40;;;;;;4964954;28;20111;-70
2023/03/23 08:26:48;;;;;;;7.72;3.00;;;12.20;86.60;;;;;;5018156;28;20061;-70
2023/03/23 08:29:49;;;;;;;8.15;2.70;;;12.20;86.60;;;;;;5011261;28;20060;-71
2023/03/23 08:32:52;;;;;;;4.30;2.03;;;12.20;87.00;;;;;;5011384;28;20063;-61
2023/03/23 08:35:38;;;;;;;4.72;1.42;;;12.20;87.00;;;;;;5036266;28;20107;-62
2023/03/23 08:38:23;;;;;;;5.05;1.85;;;12.20;87.00;;;;;;5013232;28;20049;-62
2023/03/23 08:41:22;;;;;;;3.25;1.38;;;12.20;86.70;;;;;;5010377;28;20055;-67
2023/03/23 08:44:12;;;;;;;4.15;1.38;;;12.20;86.70;;;;;;4986625;28;20057;-68
2023/03/23 08:47:10;;;;;;;2.25;0.90;;;12.20;87.00;;;;;;4993999;28;20054;-71
2023/03/23 08:50:17;;;;;;;2.55;1.40;;;12.20;86.60;;;;;;4988220;28;20188;-71
2023/03/23 08:53:02;;;;;;;1.98;1.15;;;12.20;86.90;;;;;;5014022;28;20041;-70
2023/03/23 08:55:56;;;;;;;3.10;1.17;;;12.20;87.00;;;;;;5031694;28;20502;-62
2023/03/23 08:59:06;;;;;;;4.75;1.40;;;12.20;86.50;;;;;;4945078;28;20052;-61
2023/03/23 09:01:57;;;;;;;3.08;1.20;;;12.20;86.20;;;;;;5021436;28;20137;-62
2023/03/23 09:04:43;;;;;;;2.70;1.20;;;12.30;86.50;;;;;;5020754;28;20045;-60
2023/03/23 09:07:35;;;;;;;4.00;1.52;;;12.20;86.50;;;;;;5030835;28;20052;-61
2023/03/23 09:10:10;;;;;;;3.03;1.40;;;12.20;86.70;;;;;;5030285;28;20480;-61
2023/03/23 09:12:45;;;;;;;2.47;1.27;;;12.20;87.10;;;;;;5029745;28;20052;-71
2023/03/23 09:15:19;;;;;;;2.33;1.27;;;12.20;87.20;;;;;;5029830;28;20075;-65
2023/03/23 09:17:56;;;;;;;1.88;0.90;;;12.20;87.30;;;;;;5030794;28;20049;-67
2023/03/23 09:20:30;;;;;;;5.18;1.70;;;12.20;87.40;;;;;;5028582;28;20173;-64
2023/03/23 09:23:05;;;;;;;3.72;1.30;;;12.30;87.50;;;;;;5029118;28;20049;-63
2023/03/23 09:25:39;;;;;;;4.90;1.33;;;12.30;87.70;;;;;;5032325;28;20444;-62
2023/03/23 09:28:11;;;;;;;2.38;1.00;;;12.30;87.60;;;;;;5028648;28;20554;-62
2023/03/23 09:30:47;;;;;;;5.00;1.50;;;12.30;87.60;;;;;;5029337;28;20048;-62
2023/03/23 09:33:22;;;;;;;3.97;1.50;;;12.30;87.60;;;;;;5031796;28;20067;-62
2023/03/23 09:35:56;;;;;;;3.90;1.38;;;12.30;86.80;;;;;;5030105;28;20057;-62
2023/03/23 09:38:32;;;;;;;3.65;1.48;;;12.40;87.10;;;;;;5032308;28;20127;-61
2023/03/23 09:41:20;;;;;;;5.20;1.40;;;12.40;87.50;;;;;;5028239;28;20174;-72
2023/03/23 09:44:04;;;;;;;4.07;1.42;;;12.40;87.40;;;;;;5029545;28;20045;-71
2023/03/23 09:46:51;;;;;;;4.40;1.35;;;12.40;87.20;;;;;;5031035;28;20048;-70
2023/03/23 09:49:32;;;;;;;3.38;1.40;;;12.40;86.80;;;;;;5033499;28;20110;-70
2023/03/23 09:52:12;;;;;;;2.70;1.30;;;12.50;87.40;;;;;;5031718;28;20554;-61
2023/03/23 09:54:48;;;;;;;3.60;1.40;;;12.40;87.10;;;;;;5035364;28;20050;-62
2023/03/23 09:57:28;;;;;;;4.15;1.38;;;12.50;86.80;;;;;;5035093;28;20591;-69
2023/03/23 10:00:15;;;;;;;4.38;1.20;;;12.60;86.00;;;;;;5018116;28;20056;-70
2023/03/23 10:02:56;;;;;;;5.38;1.40;;;12.60;86.10;;;;;;5013105;28;20038;-70
2023/03/23 10:05:36;;;;;;;4.15;1.42;;;12.70;86.30;;;;;;5015518;28;20073;-64
2023/03/23 10:08:13;;;;;;;3.70;1.30;;;12.80;86.40;;;;;;5016066;28;20416;-63
2023/03/23 10:10:56;;;;;;;3.17;1.05;;;12.80;85.90;;;;;;5013770;28;20050;-69
2023/03/23 10:13:47;;;;;;;2.85;1.10;;;12.90;85.40;;;;;;5013760;28;20042;-69
2023/03/23 10:16:23;;;;;;;2.20;0.90;;;12.90;85.10;;;;;;5014009;28;20049;-62
2023/03/23 10:19:04;;;;;;;4.25;1.45;;;13.10;85.40;;;;;;5012277;28;20184;-63
2023/03/23 10:21:43;;;;;;;2.83;1.08;;;13.10;84.80;;;;;;5015432;28;20041;-62
2023/03/23 10:24:20;;;;;;;2.55;1.13;;;13.20;84.50;;;;;;5014071;28;20048;-63
2023/03/23 10:27:01;;;;;;;3.00;1.23;;;13.30;84.40;;;;;;5015466;28;20506;-61
2023/03/23 10:29:39;;;;;;;3.13;1.00;;;13.40;84.30;;;;;;5015978;28;20984;-61
2023/03/23 10:32:16;;;;;;;3.33;1.10;;;13.40;84.10;;;;;;5017170;28;20053;-61
2023/03/23 10:34:52;;;;;;;1.77;0.95;;;13.40;83.70;;;;;;5015856;28;20405;-61
2023/03/23 10:37:30;;;;;;;1.73;0.82;;;13.50;83.50;;;;;;5015147;28;20164;-62
2023/03/23 10:40:10;;;;;;;3.72;1.33;;;13.40;83.10;;;;;;5014924;28;20049;-61
2023/03/23 10:42:44;;;;;;;1.95;0.90;;;13.40;82.50;;;;;;5008841;28;20533;-61
2023/03/23 10:45:21;;;;;;;2.38;0.80;;;13.40;82.50;;;;;;5015460;28;20481;-62
2023/03/23 10:48:02;;;;;;;2.60;0.98;;;13.40;82.20;;;;;;5014842;28;20054;-61
2023/03/23 10:50:38;;;;;;;2.10;0.95;;;13.40;82.10;;;;;;5015328;28;20058;-69
2023/03/23 10:53:19;;;;;;;3.03;0.80;;;13.40;82.00;;;;;;5016562;28;20053;-71
2023/03/23 10:55:54;;;;;;;2.78;0.90;;;13.50;81.80;;;;;;5016243;28;20052;-70
2023/03/23 10:58:31;;;;;;;1.83;0.77;;;13.40;81.70;;;;;;5014977;28;20048;-70
2023/03/23 11:01:13;;;;;;;3.00;0.90;;;13.50;81.50;;;;;;5010473;28;20054;-63
2023/03/23 11:03:49;;;;;;;1.92;0.77;;;13.50;81.60;;;;;;5014321;28;20045;-62
2023/03/23 11:06:27;;;;;;;4.70;1.20;;;13.50;81.50;;;;;;5017879;28;20124;-69
2023/03/23 11:09:11;;;;;;;2.38;0.70;;;13.60;81.30;;;;;;5017326;28;20374;-70
2023/03/23 11:11:50;;;;;;;2.00;0.98;;;13.60;81.10;;;;;;5033087;28;20493;-62
2023/03/23 11:14:28;;;;;;;1.63;0.73;;;13.60;81.10;;;;;;5030735;28;20128;-62
2023/03/23 11:17:04;;;;;;;2.70;0.70;;;13.60;81.20;;;;;;5024922;28;20058;-72
2023/03/23 11:19:45;;;;;;;1.63;0.80;;;13.60;81.40;;;;;;5035172;28;20044;-70
2023/03/23 11:22:23;;;;;;;1.65;0.70;;;13.60;81.50;;;;;;5015976;28;20079;-70
2023/03/23 11:25:03;;;;;;;3.05;1.00;;;13.60;81.50;;;;;;5005363;28;20496;-70
2023/03/23 11:27:39;;;;;;;2.35;0.73;;;13.60;81.30;;;;;;5008157;28;20058;-70
2023/03/23 11:30:22;;;;;;;3.60;0.88;;;13.70;81.10;;;;;;5011701;28;20451;-68
2023/03/23 11:33:00;;;;;;;2.35;0.90;;;13.80;80.90;;;;;;5007522;28;20057;-67
2023/03/23 11:35:36;;;;;;;1.70;0.90;;;13.90;80.50;;;;;;4986133;28;20046;-70
2023/03/23 11:38:17;;;;;;;1.90;0.85;;;14.00;80.40;;;;;;5010637;28;20045;-70
2023/03/23 11:40:53;;;;;;;2.50;1.23;;;14.10;80.30;;;;;;5016175;28;20049;-63
2023/03/23 11:43:27;;;;;;;1.85;1.00;;;14.10;80.00;;;;;;5015842;28;20081;-62
2023/03/23 11:46:07;;;;;;;3.13;0.85;;;14.10;79.90;;;;;;5014798;28;20049;-61
2023/03/23 11:48:45;;;;;;;2.20;0.70;;;14.20;79.60;;;;;;5017018;28;20053;-61
2023/03/23 11:51:23;;;;;;;2.60;0.98;;;14.30;79.50;;;;;;5011598;28;20375;-68
2023/03/23 11:54:01;;;;;;;1.55;0.68;;;14.30;79.20;;;;;;5015643;28;20112;-67
2023/03/23 11:56:37;;;;;;;1.75;0.70;;;14.40;78.90;;;;;;5016842;28;20050;-61
2023/03/23 11:59:14;;;;;;;2.42;0.93;;;14.50;78.90;;;;;;5015785;28;20050;-62
2023/03/23 12:01:58;;;;;;;1.75;0.80;;;14.60;78.40;;;;;;5016854;28;20058;-71
2023/03/23 12:04:38;;;;;;;2.70;1.00;;;14.70;78.40;;;;;;5036513;28;20403;-69
2023/03/23 12:07:25;;;;;;;3.92;1.13;;;14.80;78.20;;;;;;5036512;28;20493;-69
2023/03/23 12:10:10;;;;;;;4.35;1.15;;;14.90;78.00;;;;;;5034502;28;20050;-69
2023/03/23 12:12:50;;;;;;;3.10;0.95;;;15.00;77.70;;;;;;5015704;28;20049;-69
2023/03/23 12:15:31;;;;;;;3.03;1.08;;;15.10;77.10;;;;;;5014730;28;20061;-64
2023/03/23 12:18:15;;;;;;;2.35;1.00;;;15.10;76.80;;;;;;5016467;28;20053;-63
2023/03/23 12:21:00;;;;;;;3.63;1.10;;;15.10;76.60;;;;;;5017909;28;20132;-61
2023/03/23 12:23:41;;;;;;;2.35;0.90;;;15.10;76.20;;;;;;5014042;28;20100;-62
2023/03/23 12:26:24;;;;;;;2.45;0.95;;;15.10;75.70;;;;;;5014820;28;20053;-69
2023/03/23 12:29:44;;;;;;;2.55;0.70;;;15.20;75.40;;;;;;5016286;28;20136;-70
2023/03/23 12:32:42;;;;;;;2.17;0.90;;;15.20;75.20;;;;;;4993477;28;20077;-72
2023/03/23 12:35:33;;;;;;;1.73;0.57;;;15.20;74.70;;;;;;5036507;28;20477;-71
2023/03/23 12:38:21;;;;;;;1.80;0.93;;;15.10;74.40;;;;;;5035691;28;20059;-70
2023/03/23 12:41:12;;;;;;;2.03;1.00;;;15.00;74.60;;;;;;5035051;28;20055;-70
2023/03/23 12:43:53;;;;;;;1.42;0.80;;;14.80;74.60;;;;;;5036312;28;20041;-69
2023/03/23 12:46:56;;;;;;;2.15;0.93;;;14.80;74.80;;;;;;5014140;28;20054;-71
2023/03/23 12:49:35;;;;;;;2.80;1.02;;;14.70;75.10;;;;;;5012489;28;20042;-70
2023/03/23 12:52:15;;;;;;;2.47;0.85;;;14.60;74.80;;;;;;5015994;28;20056;-61
2023/03/23 12:54:54;;;;;;;2.58;0.95;;;14.60;74.80;;;;;;5015231;28;20042;-62
2023/03/23 12:57:33;;;;;;;1.42;0.73;;;14.70;74.50;;;;;;5014881;28;20053;-68
2023/03/23 13:00:23;;;;;;;1.08;0.80;;;14.80;74.90;;;;;;5013836;28;20038;-68
2023/03/23 13:03:06;;;;;;;1.88;0.80;;;14.80;74.60;;;;;;5014321;28;20050;-67
2023/03/23 13:05:45;;;;;;;2.35;0.80;;;14.90;74.40;;;;;;5013485;28;20102;-68
2023/03/23 13:08:23;;;;;;;2.55;1.08;;;14.90;74.30;;;;;;5015658;28;20059;-67
2023/03/23 13:11:00;;;;;;;2.00;0.90;;;15.00;74.60;;;;;;5017240;28;20408;-69
2023/03/23 13:13:52;;;;;;;2.45;0.80;;;15.00;74.50;;;;;;5015066;28;20546;-68
2023/03/23 13:16:40;;;;;;;1.75;0.75;;;15.00;74.50;;;;;;5017102;28;20483;-69
2023/03/23 13:19:23;;;;;;;2.00;0.80;;;15.00;74.20;;;;;;5035923;28;20099;-69
2023/03/23 13:22:05;;;;;;;1.40;0.70;;;14.90;74.60;;;;;;5037924;28;20049;-69
2023/03/23 13:24:50;;;;;;;4.13;0.77;;;15.00;74.70;;;;;;5036832;28;20045;-69
2023/03/23 13:27:27;;;;;;;1.52;0.60;;;15.00;74.60;;;;;;5039454;28;20056;-69
2023/03/23 13:30:02;;;;;;;2.30;0.77;;;14.90;74.70;;;;;;5017390;28;20053;-68
2023/03/23 13:32:40;;;;;;;1.20;0.60;;;14.90;74.50;;;;;;5019397;28;20065;-69
2023/03/23 13:35:20;;;;;;;1.58;0.75;;;14.90;74.60;;;;;;5018384;28;20049;-69
2023/03/23 13:37:55;;;;;;;2.13;0.90;;;14.90;74.60;;;;;;5019671;28;20048;-69
2023/03/23 13:40:31;;;;;;;2.80;0.70;;;14.90;74.40;;;;;;5017643;28;20516;-70
2023/03/23 13:43:05;;;;;;;1.98;0.90;;;14.90;74.30;;;;;;5018965;28;20473;-68
2023/03/23 13:45:44;;;;;;;1.67;0.73;;;14.90;74.10;;;;;;5019358;28;20053;-68
2023/03/23 13:48:21;;;;;;;3.13;0.90;;;14.80;74.20;;;;;;5019365;28;20054;-69
2023/03/23 13:50:59;;;;;;;1.42;0.73;;;14.80;74.40;;;;;;5019313;28;20508;-68
2023/03/23 13:53:45;;;;;;;3.00;0.80;;;14.80;74.40;;;;;;5018950;28;20064;-69
2023/03/23 13:56:21;;;;;;;1.75;0.68;;;14.70;74.70;;;;;;5017283;28;20417;-71